St John, Virgin Islands
Current Conditions -  °F | °C
As of 1:00 PM on Friday 28 Nov 2014 (Local Time) from TUPJ Reporting Station
Few Clouds Few Clouds  
Wind Chill: 84°   Ceiling: Unl
Heat Index: 91°   Visibility: 6mi
Dew Point: 73°   Wind: 7mph
Humidity: 70%   Direction: 140°SE
Pressure: 29.94"   Gusts: NA
Location:  18.3333°N, 64.7943°W
Report Text: TUPJ 281700Z 14006KT 9999 FEW025 29/23 Q1014 RMK A2995
Loading
Personal Weather Stations






























Interactive Weather Map New forecast layout! Learn more

10-Day Weather Forecast

Advertisements
Track Severe Weather on mobile